Time;durP1;ratioP1;P1;durP2;ratioP2;P2;SDS_P1;SDS_P2;PMS_P1;PMS_P2;Temp;Humidity;BMP_temperature;BMP_pressure;BME280_temperature;BME280_humidity;BME280_pressure;Samples;Min_cycle;Max_cycle;Signal;HPM_P1;HPM_P2
2023/12/26 00:01:00;;;;;;;1.38;1.20;;;;;;;9.34;100.00;100409.97;5027190;28;20093;-66
2023/12/26 00:03:25;;;;;;;2.72;1.58;;;;;;;9.33;100.00;100412.53;5039680;28;20092;-66
2023/12/26 00:05:51;;;;;;;2.10;1.27;;;;;;;9.34;100.00;100415.16;5033558;28;20549;-66
2023/12/26 00:08:16;;;;;;;2.63;1.33;;;;;;;9.31;100.00;100412.47;5035023;28;20029;-66
2023/12/26 00:10:41;;;;;;;1.70;1.60;;;;;;;9.30;100.00;100408.13;5032821;28;20058;-66
2023/12/26 00:13:07;;;;;;;1.83;1.20;;;;;;;9.29;100.00;100411.53;5046203;28;20087;-66
2023/12/26 00:15:32;;;;;;;2.22;1.25;;;;;;;9.32;100.00;100406.47;5033695;28;20062;-66
2023/12/26 00:17:57;;;;;;;3.45;1.40;;;;;;;9.33;100.00;100407.34;5046091;28;20029;-66
2023/12/26 00:20:22;;;;;;;1.73;1.15;;;;;;;9.32;100.00;100408.16;5040884;28;20092;-66
2023/12/26 00:22:48;;;;;;;2.58;1.20;;;;;;;9.22;100.00;100414.78;5038254;28;20044;-66
2023/12/26 00:25:13;;;;;;;2.00;1.20;;;;;;;9.22;100.00;100404.44;5041248;28;20498;-66
2023/12/26 00:27:39;;;;;;;3.08;1.30;;;;;;;9.20;100.00;100409.56;5026903;28;20037;-66
2023/12/26 00:30:06;;;;;;;2.03;1.20;;;;;;;9.21;100.00;100402.69;5039499;28;20025;-66
2023/12/26 00:32:31;;;;;;;1.40;1.17;;;;;;;9.20;100.00;100401.81;5027355;28;20075;-66
2023/12/26 00:34:58;;;;;;;2.63;1.30;;;;;;;9.16;100.00;100397.34;5027012;28;20432;-66
2023/12/26 00:37:23;;;;;;;2.33;1.30;;;;;;;9.13;100.00;100411.09;5031399;28;20552;-66
2023/12/26 00:39:48;;;;;;;2.50;1.20;;;;;;;9.08;100.00;100404.00;5027201;28;20029;-66
2023/12/26 00:42:14;;;;;;;2.10;1.17;;;;;;;9.10;100.00;100405.78;5029435;28;20186;-66
2023/12/26 00:44:39;;;;;;;2.33;1.20;;;;;;;9.09;100.00;100404.06;5031079;28;20053;-65
2023/12/26 00:47:04;;;;;;;3.03;1.00;;;;;;;9.04;100.00;100403.03;5032953;28;20035;-66
2023/12/26 00:49:30;;;;;;;2.58;0.98;;;;;;;9.05;100.00;100416.84;5030711;28;20032;-66
2023/12/26 00:51:55;;;;;;;1.02;0.93;;;;;;;9.06;100.00;100429.81;5026626;28;20035;-66
2023/12/26 00:54:20;;;;;;;3.00;1.27;;;;;;;9.04;100.00;100423.72;5026702;28;20097;-66
2023/12/26 00:56:45;;;;;;;2.03;0.90;;;;;;;9.03;100.00;100429.69;5026796;28;20040;-66
2023/12/26 00:59:11;;;;;;;2.15;0.90;;;;;;;9.02;100.00;100433.13;5026638;28;20369;-66
2023/12/26 01:01:36;;;;;;;1.83;1.00;;;;;;;9.02;100.00;100435.69;5026708;28;20107;-66
2023/12/26 01:04:01;;;;;;;1.92;1.10;;;;;;;9.03;100.00;100427.09;5026561;28;20018;-66
2023/12/26 01:06:26;;;;;;;1.83;1.15;;;;;;;9.02;100.00;100438.28;5037543;28;20496;-66
2023/12/26 01:08:52;;;;;;;2.08;1.05;;;;;;;9.00;100.00;100439.94;5027754;28;20021;-66
2023/12/26 01:11:17;;;;;;;2.72;1.77;;;;;;;9.00;100.00;100434.78;5036657;28;20052;-66
2023/12/26 01:13:42;;;;;;;1.90;0.90;;;;;;;9.03;100.00;100431.41;5028560;28;20032;-66
2023/12/26 01:16:07;;;;;;;0.98;0.93;;;;;;;9.01;100.00;100431.38;5025801;28;20100;-66
2023/12/26 01:18:33;;;;;;;2.08;1.08;;;;;;;8.99;100.00;100433.03;5042780;28;20267;-66
2023/12/26 01:20:58;;;;;;;2.00;1.05;;;;;;;9.04;100.00;100441.81;5045657;28;20025;-66
2023/12/26 01:23:23;;;;;;;1.33;0.85;;;;;;;9.02;100.00;100433.13;5027700;28;20025;-66
2023/12/26 01:25:49;;;;;;;1.00;0.90;;;;;;;9.00;100.00;100432.19;5031997;28;20025;-66
2023/12/26 01:28:15;;;;;;;1.27;0.88;;;;;;;9.04;100.00;100443.50;5035488;28;20025;-66
2023/12/26 01:30:41;;;;;;;3.42;1.13;;;;;;;9.01;100.00;100442.56;5039384;28;20492;-66
2023/12/26 01:33:09;;;;;;;2.05;0.90;;;;;;;9.00;100.00;100442.53;5027033;28;20017;-66
2023/12/26 01:35:34;;;;;;;2.22;1.70;;;;;;;8.99;100.00;100439.06;5026431;28;20025;-66
2023/12/26 01:38:00;;;;;;;1.05;0.95;;;;;;;9.03;100.00;100458.13;5034049;28;20020;-66
2023/12/26 01:40:25;;;;;;;2.53;1.40;;;;;;;9.01;100.00;100458.06;5031714;28;20027;-66
2023/12/26 01:42:50;;;;;;;1.30;1.20;;;;;;;8.99;100.00;100459.72;5028419;28;20025;-66
2023/12/26 01:45:16;;;;;;;1.83;1.13;;;;;;;9.01;100.00;100441.72;5037208;28;20041;-65
2023/12/26 01:47:49;;;;;;;1.35;1.25;;;;;;;9.03;100.00;100454.69;5034140;28;20029;-66
2023/12/26 01:50:15;;;;;;;4.40;1.73;;;;;;;9.02;100.00;100469.31;5032794;28;20075;-66
2023/12/26 01:52:41;;;;;;;2.17;1.55;;;;;;;9.02;100.00;100469.31;5032415;28;20382;-66
2023/12/26 01:55:08;;;;;;;2.78;1.27;;;;;;;9.04;100.00;100470.25;5032154;28;20032;-65
2023/12/26 01:57:35;;;;;;;1.58;1.48;;;;;;;9.02;100.00;100464.13;5027143;28;20627;-66
2023/12/26 02:00:02;;;;;;;2.28;2.08;;;;;;;9.03;100.00;100475.38;5025259;28;20268;-66
2023/12/26 02:02:28;;;;;;;2.28;2.17;;;;;;;9.03;100.00;100483.97;5018131;28;20108;-66
2023/12/26 02:04:54;;;;;;;2.30;2.10;;;;;;;9.03;100.00;100488.28;5027099;28;20025;-66
2023/12/26 02:07:19;;;;;;;2.90;2.17;;;;;;;9.03;100.00;100485.69;5030771;28;20056;-66
2023/12/26 02:09:44;;;;;;;2.50;1.70;;;;;;;9.04;100.00;100478.00;5025707;28;20033;-66
2023/12/26 02:12:10;;;;;;;2.75;1.90;;;;;;;9.06;100.00;100476.34;5026167;28;20032;-66
2023/12/26 02:14:35;;;;;;;1.75;1.60;;;;;;;9.05;100.00;100487.50;5031990;28;20029;-66
2023/12/26 02:17:03;;;;;;;1.85;1.27;;;;;;;9.04;100.00;100483.16;5031034;28;20093;-66
2023/12/26 02:19:28;;;;;;;1.83;1.23;;;;;;;9.03;100.00;100489.13;5034733;28;20024;-66
2023/12/26 02:21:53;;;;;;;1.55;1.42;;;;;;;9.02;100.00;100484.81;5028633;28;20026;-66
2023/12/26 02:24:18;;;;;;;1.70;1.20;;;;;;;9.03;100.00;100496.91;5030467;28;20017;-66
2023/12/26 02:26:44;;;;;;;1.60;1.35;;;;;;;9.01;100.00;100489.09;5029251;28;20017;-66
2023/12/26 02:29:10;;;;;;;1.63;1.50;;;;;;;9.06;100.00;100485.78;5029311;28;20037;-66
2023/12/26 02:31:38;;;;;;;1.50;1.35;;;;;;;9.07;100.00;100487.53;5030207;28;20029;-65
2023/12/26 02:34:04;;;;;;;2.00;1.48;;;;;;;9.05;100.00;100494.38;5029751;28;20115;-66
2023/12/26 02:36:29;;;;;;;1.60;1.50;;;;;;;9.04;100.00;100498.66;5029737;28;20544;-66
2023/12/26 02:38:55;;;;;;;2.30;1.48;;;;;;;9.04;100.00;100495.19;5029184;28;20041;-66
2023/12/26 02:41:20;;;;;;;2.50;1.60;;;;;;;9.02;100.00;100492.56;5034711;28;20029;-66
2023/12/26 02:43:45;;;;;;;3.90;1.50;;;;;;;8.99;100.00;100495.91;5024902;28;20410;-66
2023/12/26 02:46:11;;;;;;;3.00;1.50;;;;;;;9.03;100.00;100503.78;5046420;28;20040;-66
2023/12/26 02:48:36;;;;;;;2.15;1.50;;;;;;;9.01;100.00;100496.00;5047408;28;20056;-66
2023/12/26 02:51:02;;;;;;;2.25;1.52;;;;;;;8.99;100.00;100495.06;5034140;28;20431;-66
2023/12/26 02:53:28;;;;;;;3.38;1.70;;;;;;;8.99;100.00;100495.91;5041600;28;20017;-65
2023/12/26 02:55:53;;;;;;;1.83;1.63;;;;;;;8.99;100.00;100501.09;5030249;28;20372;-66
2023/12/26 02:58:20;;;;;;;1.90;1.80;;;;;;;9.00;100.00;100502.84;5029393;28;20021;-66
2023/12/26 03:00:46;;;;;;;2.80;1.80;;;;;;;9.01;100.00;100499.44;5024800;28;20040;-66
2023/12/26 03:03:11;;;;;;;2.15;1.77;;;;;;;8.99;100.00;100510.56;5028901;28;20025;-66
2023/12/26 03:05:36;;;;;;;2.38;2.20;;;;;;;8.99;100.00;100515.72;5031174;28;20036;-66
2023/12/26 03:08:02;;;;;;;2.50;2.30;;;;;;;8.99;100.00;100516.59;5047947;28;20025;-66
2023/12/26 03:10:27;;;;;;;2.72;2.53;;;;;;;9.01;100.00;100525.28;5030942;28;20032;-66
2023/12/26 03:12:53;;;;;;;2.78;2.58;;;;;;;9.00;100.00;100539.03;5028175;28;20482;-66
2023/12/26 03:15:18;;;;;;;3.30;3.10;;;;;;;9.00;100.00;100546.78;5028387;28;20028;-66
2023/12/26 03:17:43;;;;;;;3.38;3.17;;;;;;;9.01;100.00;100538.19;5028715;28;20040;-65
2023/12/26 03:20:09;;;;;;;4.15;3.65;;;;;;;9.01;100.00;100537.34;5029084;28;20101;-66
2023/12/26 03:22:34;;;;;;;4.53;4.13;;;;;;;9.02;100.00;100549.44;5028974;28;20087;-66
2023/12/26 03:24:59;;;;;;;4.85;4.45;;;;;;;9.01;100.00;100550.28;5029183;28;20036;-66
2023/12/26 03:27:25;;;;;;;4.70;4.30;;;;;;;9.00;100.00;100548.50;5027658;28;20021;-66
2023/12/26 03:29:50;;;;;;;10.50;4.88;;;;;;;9.01;100.00;100540.78;5027491;28;20041;-66
2023/12/26 03:32:16;;;;;;;4.88;4.00;;;;;;;8.96;100.00;100538.91;5027478;28;20017;-66
2023/12/26 03:34:42;;;;;;;6.72;3.97;;;;;;;8.97;100.00;100548.41;5028371;28;20434;-66
2023/12/26 03:37:07;;;;;;;5.80;4.25;;;;;;;8.96;100.00;100547.50;5028684;28;20049;-65
2023/12/26 03:39:32;;;;;;;4.95;4.15;;;;;;;8.93;100.00;100557.75;5029506;28;20091;-66
2023/12/26 03:41:58;;;;;;;5.35;4.30;;;;;;;8.93;100.00;100551.69;5030404;28;20036;-66
2023/12/26 03:44:23;;;;;;;7.85;3.78;;;;;;;8.92;100.00;100556.00;5027095;28;20041;-66
2023/12/26 03:46:49;;;;;;;6.18;4.32;;;;;;;8.91;100.00;100548.16;5030044;28;20124;-66
2023/12/26 03:49:14;;;;;;;4.65;4.20;;;;;;;8.89;100.00;100551.59;5030711;28;20021;-65
2023/12/26 03:51:40;;;;;;;8.52;4.63;;;;;;;8.89;100.00;100558.47;5028492;28;20536;-66
2023/12/26 03:54:05;;;;;;;5.55;3.90;;;;;;;8.89;100.00;100561.03;5030203;28;20116;-65
2023/12/26 03:56:31;;;;;;;4.90;3.60;;;;;;;8.87;100.00;100553.25;5027905;28;20017;-66
2023/12/26 03:58:58;;;;;;;4.70;2.78;;;;;;;8.87;100.00;100560.09;5030499;28;20017;-66
2023/12/26 04:01:23;;;;;;;4.97;2.70;;;;;;;8.87;100.00;100563.59;5027998;28;20077;-66
2023/12/26 04:03:49;;;;;;;4.80;2.67;;;;;;;8.87;100.00;100563.59;5028172;28;20017;-66
2023/12/26 04:06:14;;;;;;;4.10;2.17;;;;;;;8.87;100.00;100566.16;5037862;28;20378;-66
2023/12/26 04:08:40;;;;;;;6.95;2.45;;;;;;;8.86;100.00;100574.75;5029394;28;20025;-66
2023/12/26 04:11:05;;;;;;;5.35;2.50;;;;;;;8.88;100.00;100590.31;5038843;28;20021;-66
2023/12/26 04:13:30;;;;;;;6.63;2.97;;;;;;;8.88;100.00;100596.38;5028978;28;20759;-66
2023/12/26 04:15:56;;;;;;;5.78;2.83;;;;;;;8.88;100.00;100600.66;5028143;28;20060;-66
2023/12/26 04:18:21;;;;;;;7.57;2.65;;;;;;;8.89;100.00;100590.38;5039210;28;20052;-66
2023/12/26 04:20:46;;;;;;;4.72;2.30;;;;;;;8.89;100.00;100581.72;5027285;28;20029;-65
2023/12/26 04:23:11;;;;;;;7.13;2.53;;;;;;;8.89;100.00;100589.47;5042166;28;20017;-66
2023/12/26 04:25:37;;;;;;;5.15;2.20;;;;;;;8.91;100.00;100594.69;5035463;28;20520;-65
2023/12/26 04:28:02;;;;;;;5.25;2.15;;;;;;;8.88;100.00;100598.06;5027442;28;20559;-66
2023/12/26 04:30:27;;;;;;;6.68;1.65;;;;;;;8.87;100.00;100589.41;5026867;28;20029;-66
2023/12/26 04:32:53;;;;;;;4.50;1.65;;;;;;;8.86;100.00;100607.47;5030592;28;20025;-66
2023/12/26 04:35:18;;;;;;;7.65;1.60;;;;;;;8.86;100.00;100597.13;5031290;28;20025;-65
2023/12/26 04:37:43;;;;;;;8.77;1.50;;;;;;;8.82;100.00;100610.75;5027413;28;20048;-66
2023/12/26 04:40:09;;;;;;;7.90;1.63;;;;;;;8.82;100.00;100609.06;5027136;28;20029;-66
2023/12/26 04:42:34;;;;;;;5.38;1.30;;;;;;;8.80;100.00;100625.31;5027145;28;20060;-66
2023/12/26 04:45:00;;;;;;;7.50;1.35;;;;;;;8.83;100.00;100633.19;5026285;28;20057;-66
2023/12/26 04:47:28;;;;;;;7.22;1.10;;;;;;;8.78;100.00;100635.59;5026478;28;20036;-66
2023/12/26 04:49:53;;;;;;;6.55;1.27;;;;;;;8.75;100.00;100636.38;5025884;28;20036;-66
2023/12/26 04:52:19;;;;;;;6.88;0.90;;;;;;;8.75;100.00;100645.84;5027217;28;20025;-65
2023/12/26 04:54:44;;;;;;;7.75;1.23;;;;;;;8.72;100.00;100651.78;5027727;28;20034;-65
2023/12/26 04:57:10;;;;;;;6.68;1.15;;;;;;;8.69;100.00;100653.38;5026815;28;20013;-65
2023/12/26 04:59:37;;;;;;;5.60;1.20;;;;;;;8.67;100.00;100661.03;5026928;28;20087;-65
2023/12/26 05:02:03;;;;;;;8.02;1.35;;;;;;;8.65;100.00;100657.53;5026979;28;20261;-66
2023/12/26 05:04:28;;;;;;;4.00;1.20;;;;;;;8.65;100.00;100666.16;5027110;28;20032;-66
2023/12/26 05:06:53;;;;;;;6.68;1.45;;;;;;;8.62;100.00;100675.50;5026356;28;20038;-66
2023/12/26 05:09:19;;;;;;;5.90;1.17;;;;;;;8.65;100.00;100676.50;5036506;28;20024;-66
2023/12/26 05:11:44;;;;;;;4.95;0.98;;;;;;;8.64;100.00;100679.91;5030322;28;20086;-66
2023/12/26 05:14:09;;;;;;;3.10;0.90;;;;;;;8.64;100.00;100687.66;5027546;28;20037;-66
2023/12/26 05:16:37;;;;;;;4.00;1.15;;;;;;;8.62;100.00;100678.06;5037512;28;20751;-65
2023/12/26 05:19:03;;;;;;;5.60;1.20;;;;;;;8.62;100.00;100686.72;5027020;28;20298;-66
2023/12/26 05:21:29;;;;;;;4.68;0.90;;;;;;;8.63;100.00;100687.59;5037316;28;20100;-66
2023/12/26 05:23:54;;;;;;;7.65;1.25;;;;;;;8.64;100.00;100679.91;5027058;28;20040;-66
2023/12/26 05:26:20;;;;;;;9.80;2.40;;;;;;;8.63;100.00;100688.47;5026794;28;20021;-65
2023/12/26 05:28:45;;;;;;;5.38;0.98;;;;;;;8.60;100.00;100693.53;5025836;28;20112;-66
2023/12/26 05:31:10;;;;;;;8.38;1.20;;;;;;;8.58;100.00;100702.06;5027030;28;20048;-66
2023/12/26 05:33:36;;;;;;;5.40;1.50;;;;;;;8.56;100.00;100706.28;5026683;28;20068;-65
2023/12/26 05:36:01;;;;;;;6.70;1.20;;;;;;;8.54;100.00;100711.34;5038120;28;20061;-66
2023/12/26 05:38:26;;;;;;;5.70;1.35;;;;;;;8.51;100.00;100717.25;5026172;28;20025;-65
2023/12/26 05:40:52;;;;;;;7.70;1.40;;;;;;;8.48;100.00;100729.19;5028540;28;20034;-65
2023/12/26 05:43:17;;;;;;;5.97;0.93;;;;;;;8.47;100.00;100725.72;5037231;28;20038;-65
2023/12/26 05:45:42;;;;;;;5.05;1.23;;;;;;;8.44;100.00;100735.06;5024710;28;20620;-66
2023/12/26 05:48:08;;;;;;;6.05;1.33;;;;;;;8.41;100.00;100739.28;5033723;28;20025;-65
2023/12/26 05:50:33;;;;;;;10.93;1.35;;;;;;;8.39;100.00;100753.84;5030846;28;20057;-65
2023/12/26 05:52:58;;;;;;;7.47;1.27;;;;;;;8.37;100.00;100762.31;5025392;28;20033;-65
2023/12/26 05:55:24;;;;;;;5.50;1.08;;;;;;;8.32;100.00;100769.91;5040538;28;20560;-65
2023/12/26 05:57:49;;;;;;;5.63;0.93;;;;;;;8.28;100.00;100768.00;5041947;28;20033;-66
2023/12/26 06:00:15;;;;;;;5.90;1.33;;;;;;;8.26;100.00;100779.97;5029852;28;20029;-66
2023/12/26 06:02:40;;;;;;;6.22;1.02;;;;;;;8.23;100.00;100785.91;5029933;28;20370;-65
2023/12/26 06:05:07;;;;;;;5.40;1.10;;;;;;;8.20;100.00;100790.06;5030371;28;20464;-65
2023/12/26 06:07:32;;;;;;;5.43;1.00;;;;;;;8.14;100.00;100790.69;5031780;28;20021;-65
2023/12/26 06:09:57;;;;;;;6.22;1.00;;;;;;;8.12;100.00;100788.03;5029952;28;20029;-66
2023/12/26 06:12:23;;;;;;;4.70;0.75;;;;;;;8.10;100.00;100797.41;5030191;28;20033;-65
2023/12/26 06:14:48;;;;;;;7.30;1.42;;;;;;;8.04;100.00;100799.75;5030694;28;20025;-65
2023/12/26 06:17:13;;;;;;;8.15;1.50;;;;;;;7.99;100.00;100796.06;5029751;28;20025;-66
2023/12/26 06:19:38;;;;;;;8.75;1.48;;;;;;;7.96;100.00;100806.28;5029369;28;20053;-65
2023/12/26 06:22:04;;;;;;;3.17;1.00;;;;;;;7.91;100.00;100804.41;5029383;28;20118;-65
2023/12/26 06:24:29;;;;;;;4.18;1.23;;;;;;;7.89;100.00;100806.03;5028888;28;20021;-65
2023/12/26 06:26:54;;;;;;;8.88;1.15;;;;;;;7.83;100.00;100816.06;5028789;28;20038;-65
2023/12/26 06:29:20;;;;;;;5.20;1.00;;;;;;;7.85;100.00;100821.28;5029826;28;20029;-66
2023/12/26 06:31:45;;;;;;;9.90;1.45;;;;;;;7.81;100.00;100830.59;5029443;28;20030;-65
2023/12/26 06:34:10;;;;;;;6.90;1.10;;;;;;;7.76;100.00;100840.75;5029109;28;20029;-65
2023/12/26 06:36:35;;;;;;;7.22;1.02;;;;;;;7.69;100.00;100837.00;5028975;28;20025;-65
2023/12/26 06:39:01;;;;;;;4.22;1.33;;;;;;;7.66;100.00;100844.59;5029328;28;20112;-65
2023/12/26 06:41:30;;;;;;;4.97;1.00;;;;;;;7.64;100.00;100851.41;5033138;28;20099;-65
2023/12/26 06:43:56;;;;;;;5.80;0.98;;;;;;;7.61;100.00;100855.53;5029590;28;20081;-65
2023/12/26 06:46:21;;;;;;;5.88;1.50;;;;;;;7.55;100.00;100851.00;5017160;28;20033;-65
2023/12/26 06:48:47;;;;;;;6.75;1.45;;;;;;;7.52;100.00;100850.88;5024811;28;20037;-65
2023/12/26 06:51:15;;;;;;;5.97;1.23;;;;;;;7.48;100.00;100854.09;5029371;28;20033;-65
2023/12/26 06:53:41;;;;;;;5.60;1.10;;;;;;;7.44;100.00;100855.66;5026792;28;20041;-70
2023/12/26 06:56:07;;;;;;;6.85;1.50;;;;;;;7.41;100.00;100869.28;5025718;28;20030;-66
2023/12/26 06:58:33;;;;;;;6.10;1.23;;;;;;;7.38;100.00;100863.09;5026255;28;20064;-65
2023/12/26 07:00:59;;;;;;;6.85;1.38;;;;;;;7.34;100.00;100869.81;5032786;28;20060;-65
2023/12/26 07:03:24;;;;;;;8.00;1.35;;;;;;;7.33;100.00;100875.81;5021119;28;20088;-65
2023/12/26 07:05:49;;;;;;;6.65;1.20;;;;;;;7.32;100.00;100880.06;5027024;28;20029;-65
2023/12/26 07:08:15;;;;;;;7.32;1.52;;;;;;;7.30;100.00;100880.81;5026620;28;20094;-65
2023/12/26 07:10:40;;;;;;;5.60;0.93;;;;;;;7.27;100.00;100885.81;5030542;28;20087;-65
2023/12/26 07:13:05;;;;;;;5.93;1.20;;;;;;;7.26;100.00;100891.78;5030094;28;20028;-65
2023/12/26 07:15:31;;;;;;;5.97;1.17;;;;;;;7.24;100.00;100906.31;5025853;28;20033;-65
2023/12/26 07:17:56;;;;;;;9.68;1.55;;;;;;;7.23;100.00;100904.53;5028226;28;20056;-65
2023/12/26 07:20:21;;;;;;;7.60;1.70;;;;;;;7.21;100.00;100907.06;5028490;28;20469;-65
2023/12/26 07:22:47;;;;;;;7.22;1.30;;;;;;;7.21;100.00;100919.94;5027202;28;20032;-65
2023/12/26 07:25:12;;;;;;;6.45;1.23;;;;;;;7.21;100.00;100932.84;5027875;28;20075;-65
2023/12/26 07:27:37;;;;;;;6.63;1.08;;;;;;;7.18;100.00;100933.56;5028228;28;20034;-65
2023/12/26 07:30:03;;;;;;;4.38;1.10;;;;;;;7.16;100.00;100937.75;5028342;28;20030;-65
2023/12/26 07:32:28;;;;;;;10.23;1.70;;;;;;;7.14;100.00;100936.78;5026394;28;20020;-65
2023/12/26 07:34:53;;;;;;;4.50;1.10;;;;;;;7.12;100.00;100943.59;5025486;28;20025;-65
2023/12/26 07:37:18;;;;;;;10.25;1.33;;;;;;;7.12;100.00;100948.75;5026803;28;20458;-65
2023/12/26 07:39:44;;;;;;;6.68;1.02;;;;;;;7.10;100.00;100942.63;5039582;28;20060;-65
2023/12/26 07:42:09;;;;;;;7.78;1.35;;;;;;;7.10;100.00;100947.78;5039146;28;20384;-65
2023/12/26 07:44:34;;;;;;;6.03;1.80;;;;;;;7.09;100.00;100948.56;5025704;28;20087;-65
2023/12/26 07:47:00;;;;;;;10.35;1.25;;;;;;;7.08;100.00;100947.72;5038226;28;20127;-65
2023/12/26 07:49:25;;;;;;;5.13;1.15;;;;;;;7.09;100.00;100958.88;5033081;28;20017;-65
2023/12/26 07:51:51;;;;;;;8.07;1.20;;;;;;;7.09;100.00;100969.19;5032916;28;20452;-65
2023/12/26 07:54:16;;;;;;;4.85;1.27;;;;;;;7.09;100.00;100979.50;5025324;28;20057;-65
2023/12/26 07:56:41;;;;;;;3.30;0.85;;;;;;;7.09;100.00;100982.06;5022384;28;20713;-65
2023/12/26 07:59:06;;;;;;;5.57;1.42;;;;;;;7.09;100.00;100989.81;5024286;28;20039;-65
2023/12/26 08:01:32;;;;;;;7.95;1.23;;;;;;;7.09;100.00;100994.97;5025220;28;20017;-65
2023/12/26 08:03:57;;;;;;;4.85;1.10;;;;;;;7.08;100.00;100999.25;5025114;28;20112;-65
2023/12/26 08:06:26;;;;;;;5.80;1.20;;;;;;;7.07;100.00;100997.47;5024965;28;20523;-65
2023/12/26 08:08:52;;;;;;;6.43;1.23;;;;;;;7.07;100.00;100999.16;5029206;28;20036;-65
2023/12/26 08:11:17;;;;;;;7.75;1.35;;;;;;;7.04;100.00;101007.63;5025038;28;20029;-65
2023/12/26 08:13:44;;;;;;;7.53;1.00;;;;;;;6.99;100.00;101008.22;5013768;28;20030;-65
2023/12/26 08:16:09;;;;;;;11.43;2.17;;;;;;;6.95;100.00;101009.75;5025541;28;20021;-65
2023/12/26 08:18:34;;;;;;;7.15;1.17;;;;;;;6.93;100.00;101019.97;5031327;28;20029;-65
2023/12/26 08:21:00;;;;;;;6.00;1.30;;;;;;;6.92;100.00;101018.22;5024434;28;20388;-65
2023/12/26 08:23:26;;;;;;;5.75;1.42;;;;;;;6.92;100.00;101028.53;5025222;28;20276;-65
2023/12/26 08:25:51;;;;;;;6.93;1.33;;;;;;;6.94;100.00;101039.78;5029149;28;20037;-65
2023/12/26 08:28:16;;;;;;;12.48;1.75;;;;;;;6.95;100.00;101043.25;5021903;28;20116;-65
2023/12/26 08:30:42;;;;;;;5.15;1.05;;;;;;;6.89;100.00;101054.13;5022317;28;20037;-65
2023/12/26 08:33:07;;;;;;;8.15;1.63;;;;;;;6.89;100.00;101068.72;5024975;28;20052;-65
2023/12/26 08:35:34;;;;;;;6.43;1.45;;;;;;;6.90;100.00;101065.31;5024382;28;20029;-65
2023/12/26 08:37:59;;;;;;;9.30;1.17;;;;;;;6.88;100.00;101070.41;5025324;28;20482;-65
2023/12/26 08:40:24;;;;;;;4.85;1.27;;;;;;;6.90;100.00;101079.09;5021315;28;20029;-65
2023/12/26 08:42:50;;;;;;;6.70;1.48;;;;;;;6.88;100.00;101075.56;5020262;28;20052;-65
2023/12/26 08:45:15;;;;;;;7.30;1.85;;;;;;;6.92;100.00;101074.03;5030090;28;20500;-64
2023/12/26 08:47:40;;;;;;;9.77;1.95;;;;;;;6.91;100.00;101083.44;5025857;28;20144;-65
2023/12/26 08:50:07;;;;;;;6.95;1.48;;;;;;;6.92;100.00;101084.31;5021096;28;20053;-65
2023/12/26 08:52:32;;;;;;;10.93;1.90;;;;;;;6.90;100.00;101073.06;5022066;28;20029;-65
2023/12/26 08:54:58;;;;;;;5.38;1.25;;;;;;;6.91;100.00;101086.00;5024392;28;20033;-65
2023/12/26 08:57:23;;;;;;;9.60;1.88;;;;;;;6.90;100.00;101086.81;5024057;28;20585;-65
2023/12/26 08:59:48;;;;;;;8.48;1.77;;;;;;;6.91;100.00;101092.84;5024100;28;20035;-65
2023/12/26 09:02:13;;;;;;;7.78;1.63;;;;;;;6.92;100.00;101095.53;5026896;28;20366;-65
2023/12/26 09:04:39;;;;;;;4.57;1.20;;;;;;;6.95;100.00;101110.25;5024550;28;20484;-65
2023/12/26 09:07:04;;;;;;;10.63;2.30;;;;;;;7.00;100.00;101110.50;5023573;28;20347;-65
2023/12/26 09:09:29;;;;;;;10.65;1.67;;;;;;;7.03;100.00;101118.38;5028872;28;20108;-65
2023/12/26 09:11:56;;;;;;;9.25;1.70;;;;;;;7.07;100.00;101116.00;5024673;28;20026;-65
2023/12/26 09:14:21;;;;;;;6.65;1.60;;;;;;;7.15;100.00;101124.16;5026047;28;20025;-65
2023/12/26 09:16:47;;;;;;;4.75;1.27;;;;;;;7.21;100.00;101123.59;5026434;28;20032;-65
2023/12/26 09:19:12;;;;;;;9.80;1.90;;;;;;;7.30;100.00;101125.72;5024086;28;20508;-65
2023/12/26 09:21:38;;;;;;;7.05;1.60;;;;;;;7.37;100.00;101130.38;5024433;28;20569;-65
2023/12/26 09:24:03;;;;;;;5.13;0.98;;;;;;;7.40;100.00;101135.69;5025032;28;20033;-65
2023/12/26 09:26:29;;;;;;;9.73;2.15;;;;;;;7.42;100.00;101146.97;5025439;28;20369;-65
2023/12/26 09:28:54;;;;;;;7.60;1.60;;;;;;;7.46;100.00;101145.44;5023793;28;20366;-65
2023/12/26 09:31:19;;;;;;;5.90;1.40;;;;;;;7.50;100.00;101149.03;5027645;28;20068;-65
2023/12/26 09:33:45;;;;;;;9.52;1.75;;;;;;;7.49;100.00;101155.00;5028143;28;20473;-65
2023/12/26 09:36:10;;;;;;;10.00;2.00;;;;;;;7.44;100.00;101158.25;5028467;28;20021;-65
2023/12/26 09:38:35;;;;;;;9.55;1.50;;;;;;;7.43;100.00;101171.94;5030816;28;20039;-66
2023/12/26 09:41:01;;;;;;;9.27;1.80;;;;;;;7.42;100.00;101184.75;5040618;28;20022;-65
2023/12/26 09:43:26;;;;;;;7.53;1.42;;;;;;;7.39;100.00;101180.34;5025525;28;20025;-65
2023/12/26 09:45:52;;;;;;;4.25;1.42;;;;;;;7.36;100.00;101182.75;5028124;28;20030;-65
2023/12/26 09:48:17;;;;;;;9.35;1.63;;;;;;;7.33;100.00;101185.19;5027853;28;20021;-65
2023/12/26 09:50:43;;;;;;;9.52;1.70;;;;;;;7.28;100.00;101181.47;5030898;28;20135;-65
2023/12/26 09:53:09;;;;;;;9.05;2.25;;;;;;;7.27;100.00;101177.13;5037905;28;20026;-65
2023/12/26 09:55:35;;;;;;;11.88;2.17;;;;;;;7.23;100.00;101201.88;5039666;28;20013;-65
2023/12/26 09:58:01;;;;;;;8.73;2.00;;;;;;;7.20;100.00;101204.28;5028609;28;20852;-65
2023/12/26 10:00:27;;;;;;;8.93;1.90;;;;;;;7.17;100.00;101210.19;5027700;28;20041;-65
2023/12/26 10:02:55;;;;;;;8.85;1.88;;;;;;;7.17;100.00;101215.34;5028979;28;20037;-65
2023/12/26 10:05:21;;;;;;;9.55;1.80;;;;;;;7.15;100.00;101205.72;5028600;28;20025;-65
2023/12/26 10:07:47;;;;;;;9.10;2.00;;;;;;;7.13;100.00;101215.97;5026614;28;20132;-65
2023/12/26 10:10:19;;;;;;;6.63;2.05;;;;;;;7.17;100.00;101219.59;5027566;28;20164;-65
2023/12/26 10:12:45;;;;;;;8.45;1.80;;;;;;;7.24;100.00;101228.53;5028034;28;20036;-65
2023/12/26 10:15:11;;;;;;;11.30;2.33;;;;;;;7.32;100.00;101247.88;5026991;28;20013;-65
2023/12/26 10:17:37;;;;;;;8.73;2.13;;;;;;;7.38;100.00;101245.59;5030632;28;20508;-65
2023/12/26 10:20:03;;;;;;;11.70;2.15;;;;;;;7.45;100.00;101245.09;5027442;28;20029;-65
2023/12/26 10:22:30;;;;;;;9.50;2.00;;;;;;;7.53;100.00;101254.94;5027158;28;20417;-65
2023/12/26 10:24:56;;;;;;;10.02;2.00;;;;;;;7.59;100.00;101267.25;5028570;28;20026;-65
2023/12/26 10:27:22;;;;;;;10.82;2.10;;;;;;;7.64;100.00;101264.13;5029243;28;20029;-65
2023/12/26 10:29:51;;;;;;;10.63;1.77;;;;;;;7.68;100.00;101263.44;5027163;28;20017;-65
2023/12/26 10:32:17;;;;;;;12.98;1.77;;;;;;;7.75;100.00;101256.03;5028534;28;20264;-65
2023/12/26 10:34:42;;;;;;;7.60;1.55;;;;;;;7.79;100.00;101256.25;5029139;28;20386;-65
2023/12/26 10:37:09;;;;;;;7.85;2.58;;;;;;;7.84;100.00;101256.50;5033712;28;20020;-65
2023/12/26 10:39:34;;;;;;;9.82;1.98;;;;;;;7.87;100.00;101253.16;5029617;28;20451;-65
2023/12/26 10:42:01;;;;;;;9.45;2.20;;;;;;;7.90;100.00;101250.72;5027480;28;20095;-65
2023/12/26 10:44:28;;;;;;;10.27;1.42;;;;;;;7.92;100.00;101255.16;5023925;28;20455;-66
2023/12/26 10:46:54;;;;;;;11.52;1.80;;;;;;;7.95;100.00;101248.41;5026989;28;20033;-65
2023/12/26 10:49:23;;;;;;;6.97;1.75;;;;;;;7.99;100.00;101247.72;5026250;28;20040;-65
2023/12/26 10:51:51;;;;;;;10.23;1.95;;;;;;;8.03;100.00;101252.22;5035395;28;20032;-65
2023/12/26 10:54:20;;;;;;;8.35;2.00;;;;;;;8.07;100.00;101256.75;5027705;28;20409;-65
2023/12/26 10:56:48;;;;;;;7.85;1.73;;;;;;;8.10;100.00;101249.13;5024099;28;20452;-65
2023/12/26 10:59:14;;;;;;;9.50;1.80;;;;;;;8.17;100.00;101261.53;5032678;28;20039;-65
2023/12/26 11:01:39;;;;;;;9.65;2.00;;;;;;;8.19;100.00;101247.81;5026324;28;20029;-64
2023/12/26 11:04:05;;;;;;;10.38;2.05;;;;;;;8.23;100.00;101257.47;5014259;28;20524;-65
2023/12/26 11:06:31;;;;;;;7.03;1.60;;;;;;;8.25;100.00;101263.59;5029443;28;20394;-64
2023/12/26 11:08:56;;;;;;;11.27;1.95;;;;;;;8.27;100.00;101278.34;5026407;28;20025;-65
2023/12/26 11:11:22;;;;;;;9.57;1.60;;;;;;;8.32;100.00;101269.94;5025919;28;20033;-65
2023/12/26 11:13:48;;;;;;;6.70;2.30;;;;;;;8.34;100.00;101284.72;5029138;28;20367;-65
2023/12/26 11:16:14;;;;;;;9.52;2.38;;;;;;;8.40;100.00;101287.56;5026258;28;20083;-64